sensor_id;sensor_type;location;lat;lon;timestamp;P1;durP1;ratioP1;P2;durP2;ratioP2
20124;SDS011;10223;50.862;4.360;2022-12-11T00:02:23;25.87;;;12.53;;
20124;SDS011;10223;50.862;4.360;2022-12-11T00:04:50;24.53;;;11.53;;
20124;SDS011;10223;50.862;4.360;2022-12-11T00:07:16;27.03;;;12.93;;
20124;SDS011;10223;50.862;4.360;2022-12-11T00:09:43;28.53;;;14.00;;
20124;SDS011;10223;50.862;4.360;2022-12-11T00:12:10;30.07;;;13.23;;
20124;SDS011;10223;50.862;4.360;2022-12-11T00:14:38;28.63;;;12.97;;
20124;SDS011;10223;50.862;4.360;2022-12-11T00:17:05;28.23;;;12.77;;
20124;SDS011;10223;50.862;4.360;2022-12-11T00:19:32;26.97;;;12.00;;
20124;SDS011;10223;50.862;4.360;2022-12-11T00:21:59;28.60;;;13.27;;
20124;SDS011;10223;50.862;4.360;2022-12-11T00:24:26;31.00;;;14.03;;
20124;SDS011;10223;50.862;4.360;2022-12-11T00:26:53;30.53;;;12.80;;
20124;SDS011;10223;50.862;4.360;2022-12-11T00:29:20;23.23;;;11.00;;
20124;SDS011;10223;50.862;4.360;2022-12-11T00:31:48;29.33;;;13.33;;
20124;SDS011;10223;50.862;4.360;2022-12-11T00:34:15;25.37;;;12.00;;
20124;SDS011;10223;50.862;4.360;2022-12-11T00:36:42;29.47;;;13.20;;
20124;SDS011;10223;50.862;4.360;2022-12-11T00:39:09;30.93;;;13.23;;
20124;SDS011;10223;50.862;4.360;2022-12-11T00:41:36;26.03;;;13.30;;
20124;SDS011;10223;50.862;4.360;2022-12-11T00:44:03;29.07;;;13.63;;
20124;SDS011;10223;50.862;4.360;2022-12-11T00:46:30;30.43;;;14.07;;
20124;SDS011;10223;50.862;4.360;2022-12-11T00:48:58;28.90;;;13.77;;
20124;SDS011;10223;50.862;4.360;2022-12-11T00:51:25;28.63;;;12.23;;
20124;SDS011;10223;50.862;4.360;2022-12-11T00:53:53;31.10;;;14.80;;
20124;SDS011;10223;50.862;4.360;2022-12-11T00:56:20;26.77;;;12.23;;
20124;SDS011;10223;50.862;4.360;2022-12-11T00:58:48;29.27;;;15.13;;
20124;SDS011;10223;50.862;4.360;2022-12-11T01:01:16;29.63;;;14.23;;
20124;SDS011;10223;50.862;4.360;2022-12-11T01:03:45;32.93;;;14.67;;
20124;SDS011;10223;50.862;4.360;2022-12-11T01:06:14;25.63;;;13.67;;
20124;SDS011;10223;50.862;4.360;2022-12-11T01:08:42;28.30;;;10.97;;
20124;SDS011;10223;50.862;4.360;2022-12-11T01:11:10;28.23;;;12.20;;
20124;SDS011;10223;50.862;4.360;2022-12-11T01:13:39;23.27;;;11.47;;
20124;SDS011;10223;50.862;4.360;2022-12-11T01:16:07;27.30;;;13.47;;
20124;SDS011;10223;50.862;4.360;2022-12-11T01:18:36;23.47;;;11.23;;
20124;SDS011;10223;50.862;4.360;2022-12-11T01:21:04;32.83;;;14.23;;
20124;SDS011;10223;50.862;4.360;2022-12-11T01:23:34;28.40;;;12.87;;
20124;SDS011;10223;50.862;4.360;2022-12-11T01:26:05;26.53;;;12.93;;
20124;SDS011;10223;50.862;4.360;2022-12-11T01:28:33;26.43;;;13.30;;
20124;SDS011;10223;50.862;4.360;2022-12-11T01:31:00;29.40;;;10.40;;
20124;SDS011;10223;50.862;4.360;2022-12-11T01:33:27;16.43;;;7.47;;
20124;SDS011;10223;50.862;4.360;2022-12-11T01:35:54;21.37;;;10.30;;
20124;SDS011;10223;50.862;4.360;2022-12-11T01:38:21;27.27;;;12.83;;
20124;SDS011;10223;50.862;4.360;2022-12-11T01:40:49;25.20;;;12.23;;
20124;SDS011;10223;50.862;4.360;2022-12-11T01:43:16;30.53;;;14.27;;
20124;SDS011;10223;50.862;4.360;2022-12-11T01:45:44;34.63;;;14.63;;
20124;SDS011;10223;50.862;4.360;2022-12-11T01:48:13;27.07;;;13.50;;
20124;SDS011;10223;50.862;4.360;2022-12-11T01:50:43;28.03;;;13.10;;
20124;SDS011;10223;50.862;4.360;2022-12-11T01:53:15;27.87;;;12.87;;
20124;SDS011;10223;50.862;4.360;2022-12-11T01:55:45;30.87;;;13.47;;
20124;SDS011;10223;50.862;4.360;2022-12-11T01:58:15;29.63;;;13.67;;
20124;SDS011;10223;50.862;4.360;2022-12-11T02:00:43;32.87;;;13.03;;
20124;SDS011;10223;50.862;4.360;2022-12-11T02:03:10;28.80;;;12.30;;
20124;SDS011;10223;50.862;4.360;2022-12-11T02:05:37;28.27;;;13.43;;
20124;SDS011;10223;50.862;4.360;2022-12-11T02:08:05;33.23;;;14.57;;
20124;SDS011;10223;50.862;4.360;2022-12-11T02:10:37;32.00;;;13.30;;
20124;SDS011;10223;50.862;4.360;2022-12-11T02:13:13;28.17;;;13.50;;
20124;SDS011;10223;50.862;4.360;2022-12-11T02:15:47;28.27;;;13.77;;
20124;SDS011;10223;50.862;4.360;2022-12-11T02:18:22;29.40;;;12.77;;
20124;SDS011;10223;50.862;4.360;2022-12-11T02:20:55;31.93;;;13.77;;
20124;SDS011;10223;50.862;4.360;2022-12-11T02:26:46;27.67;;;12.53;;
20124;SDS011;10223;50.862;4.360;2022-12-11T02:29:24;30.90;;;14.37;;
20124;SDS011;10223;50.862;4.360;2022-12-11T02:31:56;28.83;;;13.97;;
20124;SDS011;10223;50.862;4.360;2022-12-11T02:34:29;31.20;;;15.23;;
20124;SDS011;10223;50.862;4.360;2022-12-11T02:37:03;30.77;;;13.83;;
20124;SDS011;10223;50.862;4.360;2022-12-11T02:39:34;30.70;;;14.00;;
20124;SDS011;10223;50.862;4.360;2022-12-11T02:42:03;31.47;;;15.10;;
20124;SDS011;10223;50.862;4.360;2022-12-11T02:44:33;32.57;;;13.00;;
20124;SDS011;10223;50.862;4.360;2022-12-11T02:47:02;31.67;;;13.93;;
20124;SDS011;10223;50.862;4.360;2022-12-11T02:49:32;26.33;;;13.40;;
20124;SDS011;10223;50.862;4.360;2022-12-11T02:52:00;29.47;;;14.30;;
20124;SDS011;10223;50.862;4.360;2022-12-11T02:54:31;36.40;;;17.00;;
20124;SDS011;10223;50.862;4.360;2022-12-11T02:57:02;27.43;;;14.03;;
20124;SDS011;10223;50.862;4.360;2022-12-11T02:59:35;30.00;;;12.77;;
20124;SDS011;10223;50.862;4.360;2022-12-11T03:02:05;32.07;;;14.93;;
20124;SDS011;10223;50.862;4.360;2022-12-11T03:04:33;31.93;;;16.03;;
20124;SDS011;10223;50.862;4.360;2022-12-11T03:07:02;31.17;;;15.07;;
20124;SDS011;10223;50.862;4.360;2022-12-11T03:09:40;32.63;;;14.27;;
20124;SDS011;10223;50.862;4.360;2022-12-11T03:12:10;33.53;;;15.43;;
20124;SDS011;10223;50.862;4.360;2022-12-11T03:14:40;31.37;;;14.77;;
20124;SDS011;10223;50.862;4.360;2022-12-11T03:17:11;31.73;;;14.30;;
20124;SDS011;10223;50.862;4.360;2022-12-11T03:19:44;35.27;;;15.13;;
20124;SDS011;10223;50.862;4.360;2022-12-11T03:22:15;33.67;;;16.47;;
20124;SDS011;10223;50.862;4.360;2022-12-11T03:24:46;36.70;;;15.70;;
20124;SDS011;10223;50.862;4.360;2022-12-11T03:27:16;36.50;;;16.07;;
20124;SDS011;10223;50.862;4.360;2022-12-11T03:29:52;38.93;;;16.83;;
20124;SDS011;10223;50.862;4.360;2022-12-11T03:32:23;33.93;;;15.30;;
20124;SDS011;10223;50.862;4.360;2022-12-11T03:34:54;35.80;;;15.63;;
20124;SDS011;10223;50.862;4.360;2022-12-11T03:37:26;25.93;;;11.17;;
20124;SDS011;10223;50.862;4.360;2022-12-11T03:39:57;34.53;;;15.57;;
20124;SDS011;10223;50.862;4.360;2022-12-11T03:42:27;34.70;;;15.40;;
20124;SDS011;10223;50.862;4.360;2022-12-11T03:44:58;37.57;;;17.83;;
20124;SDS011;10223;50.862;4.360;2022-12-11T03:47:27;34.90;;;15.83;;
20124;SDS011;10223;50.862;4.360;2022-12-11T03:49:55;35.13;;;17.20;;
20124;SDS011;10223;50.862;4.360;2022-12-11T03:52:25;38.57;;;16.60;;
20124;SDS011;10223;50.862;4.360;2022-12-11T03:54:54;34.73;;;16.63;;
20124;SDS011;10223;50.862;4.360;2022-12-11T03:57:25;36.03;;;15.77;;
20124;SDS011;10223;50.862;4.360;2022-12-11T03:59:57;36.53;;;16.27;;
20124;SDS011;10223;50.862;4.360;2022-12-11T04:02:24;35.10;;;16.13;;
20124;SDS011;10223;50.862;4.360;2022-12-11T04:04:51;41.57;;;16.80;;
20124;SDS011;10223;50.862;4.360;2022-12-11T04:07:18;39.17;;;16.43;;
20124;SDS011;10223;50.862;4.360;2022-12-11T04:09:45;44.17;;;17.63;;
20124;SDS011;10223;50.862;4.360;2022-12-11T04:12:12;41.43;;;16.70;;
20124;SDS011;10223;50.862;4.360;2022-12-11T04:14:38;39.93;;;17.20;;
20124;SDS011;10223;50.862;4.360;2022-12-11T04:17:24;42.70;;;16.00;;
20124;SDS011;10223;50.862;4.360;2022-12-11T04:20:08;47.30;;;18.13;;
20124;SDS011;10223;50.862;4.360;2022-12-11T04:22:53;39.33;;;17.43;;
20124;SDS011;10223;50.862;4.360;2022-12-11T04:25:38;39.97;;;16.83;;
20124;SDS011;10223;50.862;4.360;2022-12-11T04:28:05;39.47;;;17.50;;
20124;SDS011;10223;50.862;4.360;2022-12-11T04:30:32;42.67;;;17.83;;
20124;SDS011;10223;50.862;4.360;2022-12-11T04:33:00;43.47;;;17.77;;
20124;SDS011;10223;50.862;4.360;2022-12-11T04:35:27;45.53;;;18.30;;
20124;SDS011;10223;50.862;4.360;2022-12-11T04:37:54;42.93;;;17.40;;
20124;SDS011;10223;50.862;4.360;2022-12-11T04:40:21;42.40;;;16.93;;
20124;SDS011;10223;50.862;4.360;2022-12-11T04:42:48;41.43;;;17.10;;
20124;SDS011;10223;50.862;4.360;2022-12-11T04:45:15;40.30;;;16.57;;
20124;SDS011;10223;50.862;4.360;2022-12-11T04:47:42;43.33;;;17.83;;
20124;SDS011;10223;50.862;4.360;2022-12-11T04:50:11;44.00;;;18.30;;
20124;SDS011;10223;50.862;4.360;2022-12-11T04:52:39;38.40;;;16.70;;
20124;SDS011;10223;50.862;4.360;2022-12-11T04:55:07;41.87;;;16.80;;
20124;SDS011;10223;50.862;4.360;2022-12-11T04:57:34;40.67;;;17.10;;
20124;SDS011;10223;50.862;4.360;2022-12-11T05:00:01;38.10;;;16.47;;
20124;SDS011;10223;50.862;4.360;2022-12-11T05:02:29;38.87;;;16.77;;
20124;SDS011;10223;50.862;4.360;2022-12-11T05:05:00;47.03;;;17.07;;
20124;SDS011;10223;50.862;4.360;2022-12-11T05:07:28;40.23;;;14.90;;
20124;SDS011;10223;50.862;4.360;2022-12-11T05:09:55;42.43;;;18.90;;
20124;SDS011;10223;50.862;4.360;2022-12-11T05:12:22;42.73;;;17.67;;
20124;SDS011;10223;50.862;4.360;2022-12-11T05:14:50;45.83;;;18.70;;
20124;SDS011;10223;50.862;4.360;2022-12-11T05:17:17;41.63;;;17.50;;
20124;SDS011;10223;50.862;4.360;2022-12-11T05:19:45;39.97;;;17.70;;
20124;SDS011;10223;50.862;4.360;2022-12-11T05:22:13;41.43;;;17.93;;
20124;SDS011;10223;50.862;4.360;2022-12-11T05:24:41;39.60;;;17.83;;
20124;SDS011;10223;50.862;4.360;2022-12-11T05:27:08;41.47;;;18.43;;
20124;SDS011;10223;50.862;4.360;2022-12-11T05:29:35;41.40;;;18.47;;
20124;SDS011;10223;50.862;4.360;2022-12-11T05:32:03;35.63;;;16.53;;
20124;SDS011;10223;50.862;4.360;2022-12-11T05:34:30;41.43;;;19.23;;
20124;SDS011;10223;50.862;4.360;2022-12-11T05:36:57;44.07;;;18.93;;
20124;SDS011;10223;50.862;4.360;2022-12-11T05:39:23;42.57;;;17.77;;
20124;SDS011;10223;50.862;4.360;2022-12-11T05:41:52;40.03;;;17.27;;
20124;SDS011;10223;50.862;4.360;2022-12-11T05:44:19;38.90;;;16.43;;
20124;SDS011;10223;50.862;4.360;2022-12-11T05:46:46;36.60;;;15.10;;
20124;SDS011;10223;50.862;4.360;2022-12-11T05:49:14;41.20;;;17.67;;
20124;SDS011;10223;50.862;4.360;2022-12-11T05:51:41;37.53;;;16.43;;
20124;SDS011;10223;50.862;4.360;2022-12-11T05:54:08;41.07;;;17.13;;
20124;SDS011;10223;50.862;4.360;2022-12-11T05:56:35;44.30;;;17.33;;
20124;SDS011;10223;50.862;4.360;2022-12-11T05:59:05;35.30;;;15.93;;
20124;SDS011;10223;50.862;4.360;2022-12-11T06:01:33;35.57;;;15.87;;
20124;SDS011;10223;50.862;4.360;2022-12-11T06:04:01;39.13;;;16.60;;
20124;SDS011;10223;50.862;4.360;2022-12-11T06:06:29;29.93;;;14.40;;
20124;SDS011;10223;50.862;4.360;2022-12-11T06:08:57;39.37;;;17.33;;
20124;SDS011;10223;50.862;4.360;2022-12-11T06:11:26;40.03;;;18.40;;
20124;SDS011;10223;50.862;4.360;2022-12-11T06:13:54;44.03;;;18.20;;
20124;SDS011;10223;50.862;4.360;2022-12-11T06:16:23;37.33;;;16.57;;
20124;SDS011;10223;50.862;4.360;2022-12-11T06:18:51;43.40;;;18.53;;
20124;SDS011;10223;50.862;4.360;2022-12-11T06:21:20;42.40;;;17.13;;
20124;SDS011;10223;50.862;4.360;2022-12-11T06:23:48;40.33;;;14.70;;
20124;SDS011;10223;50.862;4.360;2022-12-11T06:26:17;46.57;;;18.87;;
20124;SDS011;10223;50.862;4.360;2022-12-11T06:28:44;43.30;;;19.60;;
20124;SDS011;10223;50.862;4.360;2022-12-11T06:31:12;40.80;;;17.00;;
20124;SDS011;10223;50.862;4.360;2022-12-11T06:33:40;42.00;;;19.00;;
20124;SDS011;10223;50.862;4.360;2022-12-11T06:36:08;40.60;;;18.43;;
20124;SDS011;10223;50.862;4.360;2022-12-11T06:38:37;46.30;;;19.70;;
20124;SDS011;10223;50.862;4.360;2022-12-11T06:41:05;47.00;;;18.23;;
20124;SDS011;10223;50.862;4.360;2022-12-11T06:43:33;42.57;;;17.87;;
20124;SDS011;10223;50.862;4.360;2022-12-11T06:46:02;41.87;;;18.03;;
20124;SDS011;10223;50.862;4.360;2022-12-11T06:48:30;33.23;;;13.70;;
20124;SDS011;10223;50.862;4.360;2022-12-11T06:50:58;41.13;;;17.60;;
20124;SDS011;10223;50.862;4.360;2022-12-11T06:53:29;44.83;;;17.63;;
20124;SDS011;10223;50.862;4.360;2022-12-11T06:56:00;37.70;;;16.20;;
20124;SDS011;10223;50.862;4.360;2022-12-11T06:58:27;47.80;;;19.50;;
20124;SDS011;10223;50.862;4.360;2022-12-11T07:00:54;47.60;;;18.20;;
20124;SDS011;10223;50.862;4.360;2022-12-11T07:03:21;43.83;;;18.90;;
20124;SDS011;10223;50.862;4.360;2022-12-11T07:05:48;40.67;;;18.00;;
20124;SDS011;10223;50.862;4.360;2022-12-11T07:08:16;49.13;;;18.53;;
20124;SDS011;10223;50.862;4.360;2022-12-11T07:10:43;39.87;;;17.50;;
20124;SDS011;10223;50.862;4.360;2022-12-11T07:13:10;43.30;;;18.37;;
20124;SDS011;10223;50.862;4.360;2022-12-11T07:15:37;44.50;;;16.57;;
20124;SDS011;10223;50.862;4.360;2022-12-11T07:18:03;39.87;;;16.47;;
20124;SDS011;10223;50.862;4.360;2022-12-11T07:20:30;42.53;;;17.37;;
20124;SDS011;10223;50.862;4.360;2022-12-11T07:22:57;42.70;;;18.80;;
20124;SDS011;10223;50.862;4.360;2022-12-11T07:25:26;42.13;;;17.20;;
20124;SDS011;10223;50.862;4.360;2022-12-11T07:27:52;41.13;;;18.23;;
20124;SDS011;10223;50.862;4.360;2022-12-11T07:30:19;38.17;;;17.10;;
20124;SDS011;10223;50.862;4.360;2022-12-11T07:32:46;38.80;;;17.10;;
20124;SDS011;10223;50.862;4.360;2022-12-11T07:35:13;41.13;;;16.63;;
20124;SDS011;10223;50.862;4.360;2022-12-11T07:37:40;35.67;;;16.13;;
20124;SDS011;10223;50.862;4.360;2022-12-11T07:40:07;39.17;;;16.67;;
20124;SDS011;10223;50.862;4.360;2022-12-11T07:42:36;35.00;;;15.17;;
20124;SDS011;10223;50.862;4.360;2022-12-11T07:45:03;36.93;;;17.27;;
20124;SDS011;10223;50.862;4.360;2022-12-11T07:47:31;44.83;;;16.90;;
20124;SDS011;10223;50.862;4.360;2022-12-11T07:49:59;44.07;;;18.40;;
20124;SDS011;10223;50.862;4.360;2022-12-11T07:52:25;39.67;;;17.87;;
20124;SDS011;10223;50.862;4.360;2022-12-11T07:54:52;40.17;;;15.63;;
20124;SDS011;10223;50.862;4.360;2022-12-11T07:57:19;35.10;;;16.37;;
20124;SDS011;10223;50.862;4.360;2022-12-11T07:59:48;37.53;;;15.70;;
20124;SDS011;10223;50.862;4.360;2022-12-11T08:02:15;43.37;;;17.70;;
20124;SDS011;10223;50.862;4.360;2022-12-11T08:04:42;41.20;;;17.23;;
20124;SDS011;10223;50.862;4.360;2022-12-11T08:07:09;37.97;;;15.10;;
20124;SDS011;10223;50.862;4.360;2022-12-11T08:09:36;42.53;;;17.47;;
20124;SDS011;10223;50.862;4.360;2022-12-11T08:12:03;40.37;;;17.07;;
20124;SDS011;10223;50.862;4.360;2022-12-11T08:14:31;37.97;;;17.47;;
20124;SDS011;10223;50.862;4.360;2022-12-11T08:16:59;39.93;;;16.57;;
20124;SDS011;10223;50.862;4.360;2022-12-11T08:19:26;42.40;;;18.20;;
20124;SDS011;10223;50.862;4.360;2022-12-11T08:21:53;42.57;;;17.83;;
20124;SDS011;10223;50.862;4.360;2022-12-11T08:24:20;47.90;;;18.00;;
20124;SDS011;10223;50.862;4.360;2022-12-11T08:26:47;37.33;;;16.07;;
20124;SDS011;10223;50.862;4.360;2022-12-11T08:29:14;34.60;;;16.33;;
20124;SDS011;10223;50.862;4.360;2022-12-11T08:31:41;38.57;;;16.17;;
20124;SDS011;10223;50.862;4.360;2022-12-11T08:34:09;35.57;;;15.37;;
20124;SDS011;10223;50.862;4.360;2022-12-11T08:36:38;37.43;;;15.83;;
20124;SDS011;10223;50.862;4.360;2022-12-11T08:39:05;37.57;;;15.53;;
20124;SDS011;10223;50.862;4.360;2022-12-11T08:41:32;37.67;;;17.30;;
20124;SDS011;10223;50.862;4.360;2022-12-11T08:43:59;39.57;;;15.07;;
20124;SDS011;10223;50.862;4.360;2022-12-11T08:46:26;35.90;;;15.50;;
20124;SDS011;10223;50.862;4.360;2022-12-11T08:48:55;36.80;;;15.67;;
20124;SDS011;10223;50.862;4.360;2022-12-11T08:51:25;36.80;;;16.53;;
20124;SDS011;10223;50.862;4.360;2022-12-11T08:53:53;34.33;;;15.00;;
20124;SDS011;10223;50.862;4.360;2022-12-11T08:56:21;42.77;;;18.17;;
20124;SDS011;10223;50.862;4.360;2022-12-11T08:58:48;33.10;;;15.37;;
20124;SDS011;10223;50.862;4.360;2022-12-11T09:01:17;34.03;;;15.47;;
20124;SDS011;10223;50.862;4.360;2022-12-11T09:03:46;33.00;;;15.27;;
20124;SDS011;10223;50.862;4.360;2022-12-11T09:06:14;34.33;;;14.07;;
20124;SDS011;10223;50.862;4.360;2022-12-11T09:08:44;28.37;;;13.43;;
20124;SDS011;10223;50.862;4.360;2022-12-11T09:11:13;33.30;;;13.20;;
20124;SDS011;10223;50.862;4.360;2022-12-11T09:13:41;32.87;;;15.13;;
20124;SDS011;10223;50.862;4.360;2022-12-11T09:16:13;28.67;;;11.87;;
20124;SDS011;10223;50.862;4.360;2022-12-11T09:18:41;37.20;;;16.40;;
20124;SDS011;10223;50.862;4.360;2022-12-11T09:21:12;32.87;;;14.43;;
20124;SDS011;10223;50.862;4.360;2022-12-11T09:23:40;30.50;;;13.60;;
20124;SDS011;10223;50.862;4.360;2022-12-11T09:26:09;37.00;;;15.60;;
20124;SDS011;10223;50.862;4.360;2022-12-11T09:28:38;30.00;;;14.37;;
20124;SDS011;10223;50.862;4.360;2022-12-11T09:31:07;31.47;;;14.80;;
20124;SDS011;10223;50.862;4.360;2022-12-11T09:33:34;31.57;;;14.00;;
20124;SDS011;10223;50.862;4.360;2022-12-11T09:36:02;29.57;;;13.70;;
20124;SDS011;10223;50.862;4.360;2022-12-11T09:38:30;32.40;;;14.97;;
20124;SDS011;10223;50.862;4.360;2022-12-11T09:40:58;31.17;;;14.20;;
20124;SDS011;10223;50.862;4.360;2022-12-11T09:43:31;31.27;;;14.10;;
20124;SDS011;10223;50.862;4.360;2022-12-11T09:46:04;32.87;;;14.53;;
20124;SDS011;10223;50.862;4.360;2022-12-11T09:48:36;34.57;;;13.03;;
20124;SDS011;10223;50.862;4.360;2022-12-11T09:51:09;35.63;;;16.43;;
20124;SDS011;10223;50.862;4.360;2022-12-11T09:53:42;30.07;;;14.13;;
20124;SDS011;10223;50.862;4.360;2022-12-11T09:56:13;33.97;;;14.53;;
20124;SDS011;10223;50.862;4.360;2022-12-11T09:58:53;30.03;;;12.90;;
20124;SDS011;10223;50.862;4.360;2022-12-11T10:01:30;32.20;;;13.83;;
20124;SDS011;10223;50.862;4.360;2022-12-11T10:04:10;35.10;;;14.30;;
20124;SDS011;10223;50.862;4.360;2022-12-11T10:06:47;32.80;;;15.73;;
20124;SDS011;10223;50.862;4.360;2022-12-11T10:09:21;31.23;;;15.03;;
20124;SDS011;10223;50.862;4.360;2022-12-11T10:11:57;31.33;;;13.80;;
20124;SDS011;10223;50.862;4.360;2022-12-11T10:14:34;34.60;;;14.33;;
20124;SDS011;10223;50.862;4.360;2022-12-11T10:17:11;34.57;;;13.67;;
20124;SDS011;10223;50.862;4.360;2022-12-11T10:19:43;34.30;;;14.07;;
20124;SDS011;10223;50.862;4.360;2022-12-11T10:22:12;36.97;;;14.63;;
20124;SDS011;10223;50.862;4.360;2022-12-11T10:24:44;38.30;;;17.20;;
20124;SDS011;10223;50.862;4.360;2022-12-11T10:27:19;31.47;;;14.10;;
20124;SDS011;10223;50.862;4.360;2022-12-11T10:29:51;37.33;;;16.27;;
20124;SDS011;10223;50.862;4.360;2022-12-11T10:32:27;36.03;;;15.97;;
20124;SDS011;10223;50.862;4.360;2022-12-11T10:35:01;37.70;;;15.17;;
20124;SDS011;10223;50.862;4.360;2022-12-11T10:37:31;33.50;;;14.47;;
20124;SDS011;10223;50.862;4.360;2022-12-11T10:39:58;43.07;;;16.53;;
20124;SDS011;10223;50.862;4.360;2022-12-11T10:42:25;34.40;;;14.17;;
20124;SDS011;10223;50.862;4.360;2022-12-11T10:44:57;37.03;;;14.90;;
20124;SDS011;10223;50.862;4.360;2022-12-11T10:47:25;40.47;;;15.87;;
20124;SDS011;10223;50.862;4.360;2022-12-11T10:49:53;37.33;;;14.93;;
20124;SDS011;10223;50.862;4.360;2022-12-11T10:52:23;38.97;;;15.70;;
20124;SDS011;10223;50.862;4.360;2022-12-11T10:54:55;33.23;;;14.80;;
20124;SDS011;10223;50.862;4.360;2022-12-11T10:57:27;37.53;;;14.40;;
20124;SDS011;10223;50.862;4.360;2022-12-11T10:59:56;35.27;;;14.90;;
20124;SDS011;10223;50.862;4.360;2022-12-11T11:02:25;34.17;;;14.93;;
20124;SDS011;10223;50.862;4.360;2022-12-11T11:04:54;39.10;;;14.40;;
20124;SDS011;10223;50.862;4.360;2022-12-11T11:07:23;37.60;;;14.70;;
20124;SDS011;10223;50.862;4.360;2022-12-11T11:10:02;37.70;;;14.67;;
20124;SDS011;10223;50.862;4.360;2022-12-11T11:12:35;35.53;;;13.87;;
20124;SDS011;10223;50.862;4.360;2022-12-11T11:15:09;36.60;;;14.83;;
20124;SDS011;10223;50.862;4.360;2022-12-11T11:17:40;34.57;;;14.10;;
20124;SDS011;10223;50.862;4.360;2022-12-11T11:20:11;31.53;;;12.77;;
20124;SDS011;10223;50.862;4.360;2022-12-11T11:22:44;31.70;;;14.73;;
20124;SDS011;10223;50.862;4.360;2022-12-11T11:25:16;43.87;;;17.10;;
20124;SDS011;10223;50.862;4.360;2022-12-11T11:27:47;29.17;;;11.63;;
20124;SDS011;10223;50.862;4.360;2022-12-11T11:30:20;29.47;;;13.10;;
20124;SDS011;10223;50.862;4.360;2022-12-11T11:32:49;30.80;;;12.43;;
20124;SDS011;10223;50.862;4.360;2022-12-11T11:35:20;26.03;;;11.43;;
20124;SDS011;10223;50.862;4.360;2022-12-11T11:37:53;29.90;;;11.37;;
20124;SDS011;10223;50.862;4.360;2022-12-11T11:40:26;23.23;;;10.33;;
20124;SDS011;10223;50.862;4.360;2022-12-11T11:42:56;23.57;;;10.27;;
20124;SDS011;10223;50.862;4.360;2022-12-11T11:45:35;23.40;;;10.07;;
20124;SDS011;10223;50.862;4.360;2022-12-11T11:48:23;25.30;;;10.33;;
20124;SDS011;10223;50.862;4.360;2022-12-11T11:50:58;23.70;;;10.03;;
20124;SDS011;10223;50.862;4.360;2022-12-11T11:53:39;28.27;;;11.77;;
20124;SDS011;10223;50.862;4.360;2022-12-11T11:56:17;25.07;;;9.80;;
20124;SDS011;10223;50.862;4.360;2022-12-11T11:58:49;25.53;;;10.33;;
20124;SDS011;10223;50.862;4.360;2022-12-11T12:01:27;24.60;;;10.03;;
20124;SDS011;10223;50.862;4.360;2022-12-11T12:03:54;24.93;;;11.13;;
20124;SDS011;10223;50.862;4.360;2022-12-11T12:06:26;23.70;;;9.57;;
20124;SDS011;10223;50.862;4.360;2022-12-11T12:09:02;30.10;;;10.57;;
20124;SDS011;10223;50.862;4.360;2022-12-11T12:11:39;20.70;;;9.03;;
20124;SDS011;10223;50.862;4.360;2022-12-11T12:14:15;23.40;;;10.27;;
20124;SDS011;10223;50.862;4.360;2022-12-11T12:16:50;26.40;;;10.53;;
20124;SDS011;10223;50.862;4.360;2022-12-11T12:19:32;25.57;;;11.13;;
20124;SDS011;10223;50.862;4.360;2022-12-11T12:22:08;22.90;;;9.77;;
20124;SDS011;10223;50.862;4.360;2022-12-11T12:24:43;24.97;;;8.77;;
20124;SDS011;10223;50.862;4.360;2022-12-11T12:27:21;21.97;;;8.73;;
20124;SDS011;10223;50.862;4.360;2022-12-11T12:29:57;21.73;;;8.53;;
20124;SDS011;10223;50.862;4.360;2022-12-11T12:32:33;25.53;;;10.73;;
20124;SDS011;10223;50.862;4.360;2022-12-11T12:35:09;25.50;;;9.23;;
20124;SDS011;10223;50.862;4.360;2022-12-11T12:37:56;27.30;;;9.80;;
20124;SDS011;10223;50.862;4.360;2022-12-11T12:40:30;27.97;;;10.53;;
20124;SDS011;10223;50.862;4.360;2022-12-11T12:43:03;25.83;;;10.77;;
20124;SDS011;10223;50.862;4.360;2022-12-11T12:45:40;25.17;;;9.83;;
20124;SDS011;10223;50.862;4.360;2022-12-11T12:48:12;25.77;;;10.70;;
20124;SDS011;10223;50.862;4.360;2022-12-11T12:50:40;32.73;;;12.63;;
20124;SDS011;10223;50.862;4.360;2022-12-11T12:53:08;30.70;;;12.10;;
20124;SDS011;10223;50.862;4.360;2022-12-11T12:55:42;30.83;;;12.37;;
20124;SDS011;10223;50.862;4.360;2022-12-11T12:58:21;32.23;;;12.53;;
20124;SDS011;10223;50.862;4.360;2022-12-11T13:00:51;36.00;;;12.83;;
20124;SDS011;10223;50.862;4.360;2022-12-11T13:03:21;32.97;;;12.67;;
20124;SDS011;10223;50.862;4.360;2022-12-11T13:05:55;32.57;;;12.80;;
20124;SDS011;10223;50.862;4.360;2022-12-11T13:08:24;33.17;;;14.10;;
20124;SDS011;10223;50.862;4.360;2022-12-11T13:10:57;30.73;;;12.70;;
20124;SDS011;10223;50.862;4.360;2022-12-11T13:13:33;29.60;;;13.40;;
20124;SDS011;10223;50.862;4.360;2022-12-11T13:16:06;30.87;;;12.70;;
20124;SDS011;10223;50.862;4.360;2022-12-11T13:18:49;36.33;;;13.63;;
20124;SDS011;10223;50.862;4.360;2022-12-11T13:21:25;32.97;;;13.37;;
20124;SDS011;10223;50.862;4.360;2022-12-11T13:23:54;34.13;;;13.53;;
20124;SDS011;10223;50.862;4.360;2022-12-11T13:26:39;36.83;;;13.70;;
20124;SDS011;10223;50.862;4.360;2022-12-11T13:29:25;34.27;;;14.17;;
20124;SDS011;10223;50.862;4.360;2022-12-11T13:31:55;37.23;;;14.57;;
20124;SDS011;10223;50.862;4.360;2022-12-11T13:34:25;31.43;;;13.63;;
20124;SDS011;10223;50.862;4.360;2022-12-11T13:36:56;30.40;;;13.13;;
20124;SDS011;10223;50.862;4.360;2022-12-11T13:39:26;36.47;;;14.97;;
20124;SDS011;10223;50.862;4.360;2022-12-11T13:41:56;33.80;;;14.97;;
20124;SDS011;10223;50.862;4.360;2022-12-11T13:44:27;37.70;;;13.57;;
20124;SDS011;10223;50.862;4.360;2022-12-11T13:46:57;33.60;;;13.73;;
20124;SDS011;10223;50.862;4.360;2022-12-11T13:49:31;35.43;;;14.43;;
20124;SDS011;10223;50.862;4.360;2022-12-11T13:52:01;33.67;;;14.23;;
20124;SDS011;10223;50.862;4.360;2022-12-11T13:54:29;37.13;;;15.60;;
20124;SDS011;10223;50.862;4.360;2022-12-11T13:56:58;37.97;;;14.17;;
20124;SDS011;10223;50.862;4.360;2022-12-11T13:59:29;39.23;;;16.83;;
20124;SDS011;10223;50.862;4.360;2022-12-11T14:01:59;34.53;;;13.97;;
20124;SDS011;10223;50.862;4.360;2022-12-11T14:04:31;40.77;;;16.33;;
20124;SDS011;10223;50.862;4.360;2022-12-11T14:07:00;40.10;;;15.60;;
20124;SDS011;10223;50.862;4.360;2022-12-11T14:09:31;41.00;;;16.70;;
20124;SDS011;10223;50.862;4.360;2022-12-11T14:11:58;41.90;;;16.17;;
20124;SDS011;10223;50.862;4.360;2022-12-11T14:14:35;45.20;;;16.23;;
20124;SDS011;10223;50.862;4.360;2022-12-11T14:17:09;42.60;;;16.47;;
20124;SDS011;10223;50.862;4.360;2022-12-11T14:19:40;31.90;;;14.87;;
20124;SDS011;10223;50.862;4.360;2022-12-11T14:22:15;43.90;;;16.93;;
20124;SDS011;10223;50.862;4.360;2022-12-11T14:24:48;36.40;;;14.77;;
20124;SDS011;10223;50.862;4.360;2022-12-11T14:27:16;30.60;;;14.07;;
20124;SDS011;10223;50.862;4.360;2022-12-11T14:29:44;41.30;;;14.83;;
20124;SDS011;10223;50.862;4.360;2022-12-11T14:32:15;37.80;;;13.47;;
20124;SDS011;10223;50.862;4.360;2022-12-11T14:34:46;35.13;;;14.67;;
20124;SDS011;10223;50.862;4.360;2022-12-11T14:37:16;37.30;;;15.40;;
20124;SDS011;10223;50.862;4.360;2022-12-11T14:39:53;34.13;;;13.53;;
20124;SDS011;10223;50.862;4.360;2022-12-11T14:42:23;32.73;;;13.87;;